CYCO

Kugluktuk Airport

Kugluktuk, Canada
METAR CYCO 231000Z 02008KT 10SM VCFG BKN003 OVC006 M02/M02 A2971 RMK ST7ST1 VIS 4 SE SLP065
Observed Flight Rules
May-23 @ 10:00 UTC (an hour ago) Instrument Flight Rules
Wind Visibility Clouds Conditions
20° at 8 knots 10 miles
  • Broken at 300' AGL
  • Overcast at 600' AGL
  • Area Fog
Temperatures Readings
Current -2°C / 28°F
Dewpoint -2°C / 28°F
Humidity 100%
Altimeter 29.71" Hg
Pressure 1006.5 hPa
Elevation 22
METAR CYCO 231000Z 02008KT 10SM VCFG BKN003 OVC006 M02/M02 A2971 RMK ST7ST1 VIS 4 SE SLP065
Observed Flight Rules
May-23 @ 10:00 UTC
(an hour ago)
LIFR
Wind Visibility
20° at 8 knots 10 miles
Clouds
  • Broken at 300' AGL
  • Overcast at 600' AGL
Conditions
  • Area Fog
Temperature Dewpoint
-2°C / 28°F -2°C / 28°F
Humidity Altimeter Pressure
100% 29.71" Hg 1006.5 hPa